Time;durP1;ratioP1;P1;durP2;ratioP2;P2;SDS_P1;SDS_P2;PMS_P1;PMS_P2;Temp;Humidity;BMP_temperature;BMP_pressure;BME280_temperature;BME280_humidity;BME280_pressure;Samples;Min_cycle;Max_cycle;Signal;HPM_P1;HPM_P2
2021/04/05 00:01:10;;;;;;;3.95;1.48;;;18.60;71.80;;;;;;4997652;28;123373;-42
2021/04/05 00:03:40;;;;;;;7.65;1.38;;;18.70;71.80;;;;;;5001036;28;117044;-47
2021/04/05 00:06:11;;;;;;;7.63;1.77;;;18.60;71.50;;;;;;5011608;28;113012;-42
2021/04/05 00:08:41;;;;;;;5.38;1.30;;;18.70;71.30;;;;;;5024577;28;125243;-43
2021/04/05 00:11:12;;;;;;;4.30;1.60;;;18.70;71.40;;;;;;5021468;28;123299;-48
2021/04/05 00:13:47;;;;;;;8.55;1.50;;;18.60;71.30;;;;;;5012532;28;117785;-53
2021/04/05 00:16:21;;;;;;;7.78;1.83;;;18.70;71.60;;;;;;4999509;27;108269;-51
2021/04/05 00:18:51;;;;;;;7.28;2.30;;;18.70;71.90;;;;;;5012013;28;123535;-45
2021/04/05 00:21:25;;;;;;;4.93;2.10;;;18.80;71.80;;;;;;5014163;28;125400;-45
2021/04/05 00:23:55;;;;;;;6.88;2.42;;;18.80;71.80;;;;;;5011053;28;117658;-45
2021/04/05 00:26:28;;;;;;;4.55;2.13;;;18.90;72.10;;;;;;5011278;27;109940;-44
2021/04/05 00:29:46;;;;;;;5.63;1.80;;;19.00;72.00;;;;;;5036448;27;95945;-52
2021/04/05 00:32:16;;;;;;;4.57;2.10;;;19.10;72.00;;;;;;5014145;27;95720;-49
2021/04/05 00:34:46;;;;;;;8.52;1.98;;;19.20;72.00;;;;;;5015420;27;96009;-49
2021/04/05 00:37:15;;;;;;;4.32;2.20;;;19.30;72.20;;;;;;5016033;27;96460;-44
2021/04/05 00:39:49;;;;;;;5.65;2.40;;;19.30;71.90;;;;;;5014025;28;97482;-49
2021/04/05 00:42:21;;;;;;;4.72;2.30;;;19.30;71.90;;;;;;5033659;27;95879;-44
2021/04/05 00:44:52;;;;;;;7.80;1.73;;;19.40;71.70;;;;;;5016157;28;96228;-49
2021/04/05 00:47:25;;;;;;;5.03;2.38;;;19.50;71.70;;;;;;5013611;27;96766;-53
2021/04/05 00:49:57;;;;;;;7.30;2.08;;;19.60;71.50;;;;;;5016665;27;95909;-44
2021/04/05 00:52:30;;;;;;;4.40;1.67;;;19.70;71.30;;;;;;5050263;27;96459;-43
2021/04/05 00:55:01;;;;;;;7.82;1.50;;;19.70;71.20;;;;;;5027554;27;96041;-43
2021/04/05 00:57:31;;;;;;;8.80;1.83;;;19.80;71.30;;;;;;5015746;28;97109;-44
2021/04/05 01:00:07;;;;;;;4.60;1.90;;;19.70;70.80;;;;;;5017322;28;96091;-48
2021/04/05 01:02:38;;;;;;;5.40;2.00;;;19.80;70.90;;;;;;5013338;27;95689;-43
2021/04/05 01:05:10;;;;;;;7.60;2.22;;;19.80;70.70;;;;;;5017712;28;96394;-43
2021/04/05 01:07:40;;;;;;;;;;;19.80;70.70;;;;;;5019653;27;96502;-49
2021/04/05 01:10:12;;;;;;;6.43;1.90;;;19.90;70.80;;;;;;5016090;27;96098;-44
2021/04/05 01:12:43;;;;;;;4.00;1.80;;;20.00;70.80;;;;;;5012521;28;96416;-49
2021/04/05 01:15:17;;;;;;;3.88;1.70;;;20.00;70.80;;;;;;5013667;28;95415;-44
2021/04/05 01:17:50;;;;;;;4.57;1.70;;;20.10;70.90;;;;;;5016921;27;96094;-43
2021/04/05 01:20:20;;;;;;;4.93;1.42;;;20.10;71.00;;;;;;5015757;28;96780;-49
2021/04/05 01:22:53;;;;;;;5.45;1.25;;;20.30;70.80;;;;;;5017587;28;98451;-45
2021/04/05 01:25:23;;;;;;;4.03;1.70;;;20.40;70.90;;;;;;5022019;27;95729;-50
2021/04/05 01:27:55;;;;;;;4.35;1.85;;;20.50;70.60;;;;;;5013741;28;97063;-44
2021/04/05 01:30:38;;;;;;;9.15;1.80;;;20.50;70.70;;;;;;5006714;27;97288;-44
2021/04/05 01:33:27;;;;;;;6.03;1.90;;;20.60;70.50;;;;;;5017435;28;96137;-43
2021/04/05 01:36:03;;;;;;;7.38;1.58;;;20.70;70.40;;;;;;5014610;28;95964;-43
2021/04/05 01:38:59;;;;;;;5.00;1.80;;;20.70;70.20;;;;;;5018355;27;96578;-43
2021/04/05 01:41:31;;;;;;;3.80;1.60;;;20.80;70.10;;;;;;5000152;28;99908;-44
2021/04/05 01:44:03;;;;;;;4.72;1.55;;;20.90;70.00;;;;;;5004180;28;96688;-43
2021/04/05 01:46:35;;;;;;;5.05;1.60;;;21.00;70.00;;;;;;4995734;28;102792;-44
2021/04/05 01:49:07;;;;;;;5.38;2.08;;;21.10;69.90;;;;;;5006256;28;96779;-44
2021/04/05 01:51:37;;;;;;;4.60;1.42;;;21.20;70.00;;;;;;5003618;28;96093;-45
2021/04/05 01:54:08;;;;;;;4.20;1.17;;;21.40;69.90;;;;;;5005896;28;95291;-44
2021/04/05 01:56:40;;;;;;;2.53;1.17;;;21.60;70.00;;;;;;5003403;28;95814;-44
2021/04/05 01:59:11;;;;;;;5.82;1.35;;;21.70;69.70;;;;;;5006480;28;96617;-45
2021/04/05 02:01:44;;;;;;;4.13;1.45;;;21.80;69.50;;;;;;4993286;28;96017;-45
2021/04/05 02:04:16;;;;;;;4.35;1.52;;;21.90;69.40;;;;;;5002021;28;95824;-49
2021/04/05 02:06:48;;;;;;;4.50;1.33;;;22.10;69.30;;;;;;5002378;28;96124;-44
2021/04/05 02:09:20;;;;;;;1.95;1.52;;;22.10;69.20;;;;;;5005105;28;95933;-44
2021/04/05 02:11:53;;;;;;;2.50;1.40;;;22.30;69.00;;;;;;5003036;28;96437;-43
2021/04/05 02:14:24;;;;;;;2.60;1.73;;;22.40;69.00;;;;;;5011217;28;96120;-43
2021/04/05 02:16:54;;;;;;;;;;;22.50;68.40;;;;;;4999265;28;96693;-44
2021/04/05 02:19:25;;;;;;;3.88;1.27;;;22.50;68.40;;;;;;5003509;28;95878;-43
2021/04/05 02:21:56;;;;;;;2.03;1.48;;;22.60;68.40;;;;;;5006244;28;95841;-44
2021/04/05 02:24:25;;;;;;;2.50;1.50;;;22.80;68.40;;;;;;5008131;28;96147;-44
2021/04/05 02:26:55;;;;;;;2.10;1.17;;;22.90;68.20;;;;;;5009366;28;95933;-45
2021/04/05 02:29:26;;;;;;;2.60;1.55;;;23.00;68.10;;;;;;5005945;28;95943;-44
2021/04/05 02:31:57;;;;;;;2.03;1.10;;;23.10;67.80;;;;;;5017299;28;96456;-43
2021/04/05 02:34:26;;;;;;;2.72;1.50;;;23.20;67.90;;;;;;5001741;28;95745;-45
2021/04/05 02:36:56;;;;;;;3.90;1.77;;;23.20;64.50;;;;;;5001810;28;95902;-44
2021/04/05 02:39:25;;;;;;;4.25;2.03;;;23.10;64.20;;;;;;5002320;28;95887;-43
2021/04/05 02:41:57;;;;;;;3.63;1.92;;;23.00;65.00;;;;;;5002097;28;96062;-43
2021/04/05 02:44:28;;;;;;;4.47;1.90;;;22.90;65.00;;;;;;5005490;28;96280;-43
2021/04/05 02:47:00;;;;;;;3.80;2.17;;;22.90;65.00;;;;;;5003914;28;96496;-43
2021/04/05 02:49:32;;;;;;;2.95;1.60;;;22.90;64.80;;;;;;5000921;28;98716;-43
2021/04/05 02:52:05;;;;;;;3.17;2.13;;;22.80;64.90;;;;;;5016559;27;97275;-44
2021/04/05 02:54:38;;;;;;;3.88;2.03;;;22.90;64.80;;;;;;5000007;28;95971;-44
2021/04/05 02:57:09;;;;;;;3.88;1.52;;;22.90;64.70;;;;;;5006498;28;96166;-43
2021/04/05 02:59:39;;;;;;;5.32;1.80;;;22.90;64.70;;;;;;5016511;28;97021;-47
2021/04/05 03:02:11;;;;;;;4.90;1.90;;;22.90;64.40;;;;;;4996548;28;95876;-42
2021/04/05 03:04:43;;;;;;;4.60;2.00;;;22.80;64.20;;;;;;5000124;28;100603;-44
2021/04/05 03:07:13;;;;;;;3.85;1.77;;;22.90;63.70;;;;;;5000922;28;95750;-46
2021/04/05 03:09:44;;;;;;;5.05;1.90;;;22.90;63.80;;;;;;4995957;28;95831;-44
2021/04/05 03:12:14;;;;;;;7.78;1.90;;;22.80;63.70;;;;;;5005089;28;97958;-43
2021/04/05 03:14:45;;;;;;;6.25;1.70;;;22.80;63.90;;;;;;4998266;28;96127;-45
2021/04/05 03:17:18;;;;;;;6.50;1.63;;;22.80;63.90;;;;;;4995653;28;95802;-45
2021/04/05 03:19:49;;;;;;;11.50;1.95;;;22.80;63.30;;;;;;5000906;28;95887;-43
2021/04/05 03:22:19;;;;;;;3.70;1.88;;;22.80;62.60;;;;;;5003491;28;96367;-43
2021/04/05 03:24:50;;;;;;;5.03;1.63;;;22.70;62.50;;;;;;4997411;28;100842;-43
2021/04/05 03:27:20;;;;;;;5.13;2.50;;;22.80;62.90;;;;;;4999726;28;96448;-43
2021/04/05 03:29:51;;;;;;;5.63;2.72;;;22.70;62.70;;;;;;4998977;28;98386;-43
2021/04/05 03:32:23;;;;;;;4.32;2.08;;;22.80;62.60;;;;;;4998960;28;95939;-43
2021/04/05 03:34:58;;;;;;;5.43;1.92;;;22.80;63.10;;;;;;5000563;28;96049;-43
2021/04/05 03:37:33;;;;;;;4.85;1.92;;;22.90;63.00;;;;;;5002019;28;99854;-43
2021/04/05 03:40:07;;;;;;;4.47;1.80;;;23.00;63.00;;;;;;4998670;28;96850;-43
2021/04/05 03:43:03;;;;;;;5.47;1.83;;;23.10;63.00;;;;;;4997366;28;96615;-43
2021/04/05 03:45:57;;;;;;;4.63;2.42;;;23.20;62.80;;;;;;4995006;28;95367;-46
2021/04/05 03:48:35;;;;;;;3.00;1.17;;;23.30;62.80;;;;;;5004241;28;95701;-44
2021/04/05 03:51:14;;;;;;;6.20;1.50;;;23.30;62.70;;;;;;5015177;27;98823;-43
2021/04/05 03:53:58;;;;;;;3.67;1.58;;;23.40;62.70;;;;;;5000562;28;96494;-49
2021/04/05 03:56:39;;;;;;;2.78;1.40;;;23.50;62.60;;;;;;4997655;28;96250;-47
2021/04/05 03:59:21;;;;;;;4.25;1.60;;;23.50;62.60;;;;;;4997263;28;96511;-43
2021/04/05 04:02:03;;;;;;;3.25;1.83;;;23.50;62.40;;;;;;4991330;28;96775;-53
2021/04/05 04:04:46;;;;;;;4.93;2.00;;;23.60;62.40;;;;;;5002104;28;96076;-47
2021/04/05 04:07:26;;;;;;;2.38;1.70;;;23.60;62.40;;;;;;4999931;28;95961;-50
2021/04/05 04:09:58;;;;;;;4.85;1.73;;;23.70;62.90;;;;;;5001216;28;96122;-44
2021/04/05 04:12:33;;;;;;;14.70;3.25;;;23.70;62.20;;;;;;5000208;28;98193;-51
2021/04/05 04:15:06;;;;;;;6.38;2.45;;;23.60;56.80;;;;;;4998662;28;96716;-48
2021/04/05 04:17:37;;;;;;;6.03;2.50;;;23.10;56.20;;;;;;4989510;28;101841;-44
2021/04/05 04:20:17;;;;;;;9.20;3.47;;;23.00;58.30;;;;;;5003852;28;96323;-44
2021/04/05 04:22:48;;;;;;;34.05;21.92;;;22.90;55.80;;;;;;5000893;28;95857;-48
2021/04/05 04:25:17;;;;;;;24.00;12.07;;;22.90;57.30;;;;;;5001718;28;96069;-49
2021/04/05 04:27:47;;;;;;;27.20;12.65;;;22.90;53.20;;;;;;5012579;27;95674;-50
2021/04/05 04:30:33;;;;;;;19.90;10.43;;;22.80;56.90;;;;;;4997227;28;95798;-51
2021/04/05 04:33:06;;;;;;;12.95;7.03;;;22.80;59.90;;;;;;5007431;28;103002;-53
2021/04/05 04:35:39;;;;;;;16.83;6.85;;;23.00;61.10;;;;;;5016854;28;95946;-53
2021/04/05 04:38:10;;;;;;;13.43;5.68;;;23.10;61.20;;;;;;4999122;28;95318;-44
2021/04/05 04:40:41;;;;;;;20.00;6.35;;;23.30;62.10;;;;;;5002227;28;96452;-50
2021/04/05 04:43:11;;;;;;;11.75;4.85;;;23.30;61.70;;;;;;4999798;28;96414;-52
2021/04/05 04:45:42;;;;;;;10.82;5.00;;;23.30;60.70;;;;;;4996306;28;95791;-50
2021/04/05 04:48:13;;;;;;;13.93;4.97;;;23.20;60.70;;;;;;4995706;28;95690;-49
2021/04/05 04:50:45;;;;;;;10.75;5.28;;;23.10;61.10;;;;;;4998383;28;97009;-49
2021/04/05 04:53:16;;;;;;;10.82;4.35;;;23.10;61.00;;;;;;4998336;28;95961;-51
2021/04/05 04:55:46;;;;;;;12.68;5.28;;;23.10;61.40;;;;;;5020554;28;95745;-50
2021/04/05 04:58:18;;;;;;;8.93;4.65;;;23.10;61.40;;;;;;5017339;28;95713;-45
2021/04/05 05:00:48;;;;;;;8.55;3.92;;;23.00;61.20;;;;;;5016435;28;98761;-50
2021/04/05 05:03:19;;;;;;;12.13;4.50;;;23.00;61.30;;;;;;5018753;28;96087;-53
2021/04/05 05:05:50;;;;;;;13.32;4.38;;;23.00;61.40;;;;;;5013023;28;98513;-53
2021/04/05 05:08:21;;;;;;;10.75;4.40;;;23.00;61.60;;;;;;5019960;28;95408;-49
2021/04/05 05:10:53;;;;;;;10.75;4.25;;;23.00;62.20;;;;;;5021487;28;95594;-50
2021/04/05 05:13:24;;;;;;;9.48;3.42;;;23.00;62.00;;;;;;5020689;28;95928;-51
2021/04/05 05:15:55;;;;;;;10.52;4.45;;;22.90;62.50;;;;;;5012409;27;95876;-50
2021/04/05 05:18:26;;;;;;;6.70;3.80;;;23.00;62.80;;;;;;5025361;28;95674;-50
2021/04/05 05:20:57;;;;;;;11.73;4.20;;;22.90;63.20;;;;;;5018512;28;95373;-52
2021/04/05 05:23:28;;;;;;;9.82;4.00;;;22.90;62.70;;;;;;5035280;27;97469;-49
2021/04/05 05:25:59;;;;;;;7.90;4.10;;;22.90;62.60;;;;;;5020242;28;95532;-51
2021/04/05 05:28:34;;;;;;;9.98;3.75;;;22.90;63.20;;;;;;5023682;28;97315;-51
2021/04/05 05:31:07;;;;;;;6.75;3.20;;;23.00;62.70;;;;;;5015836;28;95392;-51
2021/04/05 05:33:40;;;;;;;7.82;3.72;;;23.00;62.90;;;;;;5022967;28;95905;-51
2021/04/05 05:36:09;;;;;;;4.47;2.83;;;23.00;62.80;;;;;;5020992;28;96763;-52
2021/04/05 05:38:39;;;;;;;6.88;3.00;;;23.00;62.40;;;;;;5021507;28;96389;-54
2021/04/05 05:41:34;;;;;;;11.32;3.88;;;23.00;62.10;;;;;;5017869;28;95464;-54
2021/04/05 05:44:14;;;;;;;8.88;3.58;;;23.00;62.90;;;;;;4984607;28;96023;-49
2021/04/05 05:46:57;;;;;;;7.13;3.10;;;23.00;62.40;;;;;;5015028;28;95439;-55
2021/04/05 05:49:34;;;;;;;6.38;2.92;;;23.00;62.40;;;;;;5024428;28;95761;-51
2021/04/05 05:52:28;;;;;;;10.18;2.80;;;23.00;61.90;;;;;;5021438;28;97570;-50
2021/04/05 05:55:32;;;;;;;8.25;2.20;;;23.00;62.40;;;;;;5019804;28;95972;-50
2021/04/05 05:58:11;;;;;;;5.93;2.95;;;23.10;62.60;;;;;;5021729;27;96142;-53
2021/04/05 06:00:45;;;;;;;7.43;2.60;;;23.20;62.90;;;;;;5016093;28;95477;-52
2021/04/05 06:03:42;;;;;;;10.38;2.92;;;23.30;63.00;;;;;;5024473;28;95326;-53
2021/04/05 06:06:16;;;;;;;7.05;2.53;;;23.30;63.10;;;;;;5022749;28;95319;-54
2021/04/05 06:08:55;;;;;;;6.05;3.33;;;23.40;63.40;;;;;;5026254;28;95955;-51
2021/04/05 06:11:41;;;;;;;4.68;2.53;;;23.50;63.50;;;;;;5023954;28;95243;-53
2021/04/05 06:14:35;;;;;;;5.50;2.47;;;23.50;63.70;;;;;;5025116;28;96433;-52
2021/04/05 06:17:23;;;;;;;3.53;2.42;;;23.60;63.90;;;;;;5018876;27;98014;-52
2021/04/05 06:20:01;;;;;;;5.57;2.75;;;23.70;64.10;;;;;;5028426;28;95874;-49
2021/04/05 06:23:06;;;;;;;4.78;2.50;;;23.70;64.10;;;;;;5025806;28;96059;-53
2021/04/05 06:25:51;;;;;;;4.47;2.33;;;23.70;64.10;;;;;;5027149;27;95767;-53
2021/04/05 06:28:40;;;;;;;5.43;2.95;;;23.80;64.20;;;;;;5021400;28;95919;-50
2021/04/05 06:31:25;;;;;;;4.90;2.20;;;23.90;64.30;;;;;;5022247;27;96641;-54
2021/04/05 06:33:56;;;;;;;6.05;2.30;;;23.90;64.20;;;;;;5024940;28;95960;-50
2021/04/05 06:37:03;;;;;;;3.75;2.45;;;24.00;64.40;;;;;;5025917;28;95822;-52
2021/04/05 06:39:40;;;;;;;6.68;3.50;;;24.00;64.40;;;;;;5023059;28;95861;-50
2021/04/05 06:42:26;;;;;;;8.27;3.45;;;24.00;60.80;;;;;;5020242;28;96290;-50
2021/04/05 06:45:30;;;;;;;6.22;2.55;;;23.70;60.90;;;;;;5019261;28;96214;-51
2021/04/05 06:48:20;;;;;;;5.97;2.75;;;23.60;60.60;;;;;;5017716;28;95675;-52
2021/04/05 06:51:18;;;;;;;6.38;3.22;;;23.40;61.00;;;;;;5036930;27;96746;-54
2021/04/05 06:54:26;;;;;;;9.55;2.90;;;23.30;60.90;;;;;;5020988;28;96815;-49
2021/04/05 06:57:13;;;;;;;10.82;3.17;;;23.40;61.10;;;;;;5023570;28;95927;-49
2021/04/05 07:00:03;;;;;;;13.50;3.00;;;23.20;61.60;;;;;;5014254;28;95852;-50
2021/04/05 07:02:50;;;;;;;7.32;3.00;;;23.10;61.00;;;;;;5014572;28;96063;-49
2021/04/05 07:05:45;;;;;;;7.35;2.72;;;23.00;61.20;;;;;;5022285;28;96139;-50
2021/04/05 07:08:32;;;;;;;8.45;3.47;;;23.00;61.50;;;;;;5022458;28;95872;-49
2021/04/05 07:11:18;;;;;;;9.13;3.35;;;23.00;61.70;;;;;;5012742;28;95791;-49
2021/04/05 07:13:57;;;;;;;8.70;2.58;;;23.00;61.60;;;;;;4992571;28;96903;-47
2021/04/05 07:16:53;;;;;;;7.20;3.13;;;23.10;61.60;;;;;;5015281;27;95920;-43
2021/04/05 07:19:54;;;;;;;4.38;2.65;;;23.10;61.70;;;;;;5009715;28;95914;-48
2021/04/05 07:22:56;;;;;;;7.32;2.63;;;23.10;61.70;;;;;;5026162;28;95576;-43
2021/04/05 07:25:28;;;;;;;;;;;23.10;61.70;;;;;;5015015;28;95884;-43
2021/04/05 07:28:01;;;;;;;6.20;2.78;;;23.10;61.70;;;;;;5016771;28;95533;-43
2021/04/05 07:30:47;;;;;;;4.78;2.30;;;23.10;61.90;;;;;;5023762;27;95446;-43
2021/04/05 07:33:37;;;;;;;5.90;2.95;;;23.10;61.80;;;;;;4998892;28;95981;-43
2021/04/05 07:36:27;;;;;;;5.43;2.50;;;23.10;61.90;;;;;;5008032;28;96652;-43
2021/04/05 07:39:02;;;;;;;5.57;2.40;;;23.10;62.00;;;;;;5016874;28;95788;-43
2021/04/05 07:41:55;;;;;;;6.88;2.90;;;23.00;62.00;;;;;;5004460;28;95778;-43
2021/04/05 07:45:06;;;;;;;5.63;2.90;;;23.00;62.10;;;;;;5017860;28;95867;-43
2021/04/05 07:47:58;;;;;;;6.97;3.80;;;23.00;62.10;;;;;;5017214;27;95911;-43
2021/04/05 07:50:57;;;;;;;3.80;2.60;;;22.90;62.20;;;;;;5012959;28;101398;-43
2021/04/05 07:53:49;;;;;;;5.35;2.30;;;22.90;62.20;;;;;;5014871;28;95273;-43
2021/04/05 07:56:25;;;;;;;7.90;2.88;;;22.90;62.30;;;;;;5019504;28;95619;-43
2021/04/05 07:59:23;;;;;;;4.32;2.47;;;22.90;62.30;;;;;;5018966;28;96479;-43
2021/04/05 08:02:30;;;;;;;8.05;2.80;;;22.80;62.30;;;;;;5013579;28;95771;-43
2021/04/05 08:05:20;;;;;;;4.55;2.53;;;22.90;62.40;;;;;;5005957;28;95359;-43
2021/04/05 08:07:54;;;;;;;9.75;3.47;;;22.80;62.40;;;;;;5021776;28;95584;-43
2021/04/05 08:10:45;;;;;;;6.40;2.80;;;22.80;62.50;;;;;;5024763;28;96162;-43
2021/04/05 08:14:06;;;;;;;6.95;2.88;;;22.80;62.50;;;;;;5016570;28;96576;-43
2021/04/05 08:16:44;;;;;;;;;;;22.80;62.50;;;;;;4980704;28;95673;-43
2021/04/05 08:19:23;;;;;;;5.88;2.90;;;22.80;62.50;;;;;;5016304;28;96191;-43
2021/04/05 08:22:11;;;;;;;6.53;3.17;;;22.70;62.60;;;;;;5018123;28;96890;-43
2021/04/05 08:25:02;;;;;;;6.38;2.72;;;22.70;62.60;;;;;;5022118;28;95621;-43
2021/04/05 08:28:17;;;;;;;5.68;2.38;;;22.70;62.70;;;;;;4990710;28;95897;-43
2021/04/05 08:31:02;;;;;;;6.35;2.95;;;22.60;62.60;;;;;;5014515;28;95339;-43
2021/04/05 08:33:50;;;;;;;6.07;2.85;;;22.60;62.70;;;;;;5018012;28;95970;-47
2021/04/05 08:36:55;;;;;;;6.10;2.88;;;22.60;62.80;;;;;;5017041;28;95743;-43
2021/04/05 08:39:59;;;;;;;6.03;2.83;;;22.60;62.80;;;;;;4965962;28;97152;-44
2021/04/05 08:42:40;;;;;;;5.75;3.13;;;22.50;62.80;;;;;;5008572;28;95836;-43
2021/04/05 08:45:24;;;;;;;7.45;3.05;;;22.50;62.80;;;;;;5012515;28;96422;-43
2021/04/05 08:48:20;;;;;;;3.33;2.47;;;22.50;62.80;;;;;;5017784;28;102594;-43
2021/04/05 08:51:18;;;;;;;5.72;2.38;;;22.50;62.90;;;;;;5015154;28;97901;-44
2021/04/05 08:53:55;;;;;;;5.47;2.80;;;22.40;62.90;;;;;;5017527;28;95840;-43
2021/04/05 08:57:05;;;;;;;5.72;2.50;;;22.40;62.90;;;;;;5020825;28;95884;-43
2021/04/05 09:00:03;;;;;;;4.20;2.55;;;22.40;63.00;;;;;;5009520;28;95935;-43
2021/04/05 09:02:54;;;;;;;7.07;2.85;;;22.30;63.00;;;;;;5013324;28;97256;-43
2021/04/05 09:05:26;;;;;;;4.78;2.45;;;22.30;63.00;;;;;;5000078;28;95718;-43
2021/04/05 09:07:59;;;;;;;6.13;3.08;;;22.30;63.10;;;;;;5020217;28;95899;-43
2021/04/05 09:10:37;;;;;;;4.05;2.17;;;22.30;63.10;;;;;;5026696;28;95706;-43
2021/04/05 09:13:11;;;;;;;3.60;2.47;;;22.30;63.10;;;;;;5014835;28;95675;-43
2021/04/05 09:16:12;;;;;;;4.32;2.63;;;22.20;63.10;;;;;;5012080;27;95580;-43
2021/04/05 09:19:00;;;;;;;4.78;2.75;;;22.20;63.10;;;;;;5016282;28;96013;-43
2021/04/05 09:21:52;;;;;;;5.00;2.28;;;22.20;63.20;;;;;;5012983;28;95421;-43
2021/04/05 09:24:23;;;;;;;5.22;2.45;;;22.10;63.20;;;;;;5014237;28;95650;-43
2021/04/05 09:27:23;;;;;;;3.88;2.10;;;22.10;63.20;;;;;;5022049;28;96114;-43
2021/04/05 09:30:28;;;;;;;6.43;2.58;;;22.00;63.30;;;;;;5018139;28;96534;-43
2021/04/05 09:33:39;;;;;;;4.88;2.35;;;22.00;63.30;;;;;;5017005;28;101912;-49
2021/04/05 09:36:46;;;;;;;3.23;2.00;;;22.00;63.30;;;;;;5017258;28;95200;-43
2021/04/05 09:39:15;;;;;;;5.90;2.60;;;22.00;63.40;;;;;;5016472;28;95578;-47
2021/04/05 09:42:04;;;;;;;4.95;2.75;;;22.00;63.40;;;;;;4995655;28;98327;-50
2021/04/05 09:44:47;;;;;;;4.63;2.38;;;21.90;63.40;;;;;;5016350;28;95886;-48
2021/04/05 09:47:41;;;;;;;4.18;2.08;;;21.90;63.50;;;;;;5019658;27;95716;-49
2021/04/05 09:50:37;;;;;;;3.00;1.85;;;21.90;63.40;;;;;;5012393;28;95740;-49
2021/04/05 09:53:39;;;;;;;3.97;2.50;;;21.80;63.50;;;;;;5018124;28;95862;-44
2021/04/05 09:56:12;;;;;;;;;;;21.80;63.50;;;;;;4996962;28;97163;-43
2021/04/05 09:59:01;;;;;;;3.33;2.05;;;21.80;63.50;;;;;;5020682;28;95982;-49
2021/04/05 10:01:33;;;;;;;3.45;1.73;;;21.80;63.60;;;;;;5012538;28;101090;-43
2021/04/05 10:04:07;;;;;;;4.10;2.35;;;21.80;63.60;;;;;;5013917;28;95907;-48
2021/04/05 10:06:39;;;;;;;5.80;3.05;;;21.80;63.70;;;;;;5015144;28;96004;-43
2021/04/05 10:09:09;;;;;;;;;;;21.70;63.70;;;;;;5017897;28;95832;-48
2021/04/05 10:11:44;;;;;;;5.45;2.92;;;21.70;63.80;;;;;;5015157;28;95795;-43
2021/04/05 10:14:22;;;;;;;4.93;2.53;;;21.60;63.80;;;;;;5021676;28;96023;-48
2021/04/05 10:16:57;;;;;;;5.93;2.60;;;21.60;63.80;;;;;;5011743;27;95835;-43
2021/04/05 10:19:38;;;;;;;4.20;1.98;;;21.60;63.80;;;;;;5029782;28;95320;-49
2021/04/05 10:22:19;;;;;;;5.40;2.42;;;21.60;63.80;;;;;;5015924;28;96110;-49
2021/04/05 10:25:00;;;;;;;3.25;2.30;;;21.60;63.80;;;;;;5043405;27;98006;-49
2021/04/05 10:27:33;;;;;;;7.50;2.35;;;21.50;63.90;;;;;;5013232;28;95924;-43
2021/04/05 10:30:06;;;;;;;4.05;2.83;;;21.50;63.90;;;;;;5014527;28;95680;-49
2021/04/05 10:32:39;;;;;;;5.22;2.78;;;21.50;63.90;;;;;;4997702;28;95787;-43
2021/04/05 10:35:11;;;;;;;5.93;2.42;;;21.50;64.00;;;;;;5017387;28;95961;-50
2021/04/05 10:37:45;;;;;;;5.65;2.38;;;21.50;63.90;;;;;;5021089;28;96051;-49
2021/04/05 10:40:18;;;;;;;4.50;2.70;;;21.40;64.00;;;;;;5014951;28;99483;-43
2021/04/05 10:42:54;;;;;;;4.85;2.08;;;21.40;64.00;;;;;;5019258;28;95834;-48
2021/04/05 10:45:32;;;;;;;6.65;2.47;;;21.40;64.00;;;;;;5019659;27;98676;-48
2021/04/05 10:48:17;;;;;;;4.53;2.15;;;21.40;64.10;;;;;;5023450;28;95728;-43
2021/04/05 10:51:04;;;;;;;4.15;2.63;;;21.40;64.10;;;;;;5020966;28;95700;-43
2021/04/05 10:53:39;;;;;;;4.30;1.80;;;21.30;64.20;;;;;;5018932;28;95358;-48
2021/04/05 10:56:12;;;;;;;3.70;1.73;;;21.30;64.20;;;;;;5010423;28;95973;-48
2021/04/05 10:59:09;;;;;;;3.92;1.80;;;21.30;64.20;;;;;;5010091;28;96185;-49
2021/04/05 11:01:49;;;;;;;4.82;2.47;;;21.20;64.20;;;;;;5015736;28;97617;-48
2021/04/05 11:04:24;;;;;;;5.45;2.30;;;21.20;64.20;;;;;;5017299;28;99899;-47
2021/04/05 11:06:55;;;;;;;4.72;2.20;;;21.20;64.40;;;;;;5011864;28;95839;-50
2021/04/05 11:09:27;;;;;;;4.07;2.30;;;21.20;64.40;;;;;;5013413;28;103121;-51
2021/04/05 11:11:57;;;;;;;5.78;2.60;;;21.20;64.50;;;;;;5021804;27;95150;-48
2021/04/05 11:14:28;;;;;;;4.88;2.28;;;21.10;64.50;;;;;;5012459;28;97285;-48
2021/04/05 11:17:00;;;;;;;;;;;21.10;64.40;;;;;;5008766;27;95924;-48
2021/04/05 11:19:39;;;;;;;6.93;2.30;;;21.10;64.50;;;;;;5021259;28;98043;-50
2021/04/05 11:22:17;;;;;;;4.50;2.15;;;21.10;64.50;;;;;;4977331;27;97258;-46
2021/04/05 11:25:06;;;;;;;3.05;1.58;;;21.00;63.80;;;;;;5020304;28;96442;-51
2021/04/05 11:27:41;;;;;;;3.88;2.28;;;20.90;63.90;;;;;;5020108;28;96881;-50
2021/04/05 11:30:23;;;;;;;6.68;2.25;;;20.90;64.20;;;;;;5010546;28;95839;-45
2021/04/05 11:32:54;;;;;;;5.90;2.10;;;20.80;64.30;;;;;;5018282;28;96487;-52
2021/04/05 11:35:31;;;;;;;2.80;2.10;;;20.80;64.50;;;;;;5017283;27;95794;-52
2021/04/05 11:38:19;;;;;;;4.38;2.03;;;20.70;64.60;;;;;;5016811;28;95861;-54
2021/04/05 11:40:57;;;;;;;3.70;2.00;;;20.60;64.70;;;;;;5014913;28;97602;-52
2021/04/05 11:43:39;;;;;;;3.72;1.77;;;20.50;64.90;;;;;;5019536;28;95768;-52
2021/04/05 11:46:13;;;;;;;4.68;1.90;;;20.50;65.00;;;;;;4992970;28;96456;-50
2021/04/05 11:49:01;;;;;;;14.50;2.25;;;20.40;65.20;;;;;;5015654;28;97376;-54
2021/04/05 11:51:56;;;;;;;3.83;1.80;;;20.40;65.20;;;;;;5020546;28;96030;-52
2021/04/05 11:54:43;;;;;;;5.25;1.85;;;20.40;65.40;;;;;;5014579;28;95929;-54
2021/04/05 11:57:32;;;;;;;7.22;2.22;;;20.40;65.70;;;;;;5020406;28;96325;-53
2021/04/05 12:00:11;;;;;;;5.95;2.05;;;20.30;65.70;;;;;;5012974;28;96549;-55
2021/04/05 12:03:07;;;;;;;4.97;1.80;;;20.30;65.90;;;;;;5016056;28;96168;-51
2021/04/05 12:05:48;;;;;;;5.55;1.80;;;20.30;66.10;;;;;;5003960;28;95996;-51
2021/04/05 12:08:35;;;;;;;2.67;1.55;;;20.30;66.20;;;;;;5020362;28;95877;-52
2021/04/05 12:11:08;;;;;;;5.80;2.03;;;20.20;66.30;;;;;;5021452;28;96500;-52
2021/04/05 12:13:46;;;;;;;5.40;2.28;;;20.30;66.60;;;;;;5023422;28;97269;-53
2021/04/05 12:16:26;;;;;;;3.78;1.70;;;20.30;66.60;;;;;;5019126;28;96202;-57
2021/04/05 12:18:58;;;;;;;5.05;1.67;;;20.50;66.50;;;;;;5023697;28;95859;-49
2021/04/05 12:21:37;;;;;;;2.15;1.27;;;20.60;66.50;;;;;;5020231;28;95897;-51
2021/04/05 12:24:08;;;;;;;3.17;1.30;;;20.70;66.50;;;;;;5022186;28;95737;-48
2021/04/05 12:26:38;;;;;;;2.20;1.33;;;20.80;66.60;;;;;;5022633;28;96267;-53
2021/04/05 12:29:11;;;;;;;3.58;2.05;;;20.80;66.40;;;;;;5025047;28;96861;-52
2021/04/05 12:31:42;;;;;;;4.80;1.60;;;20.90;66.40;;;;;;5019192;28;95907;-50
2021/04/05 12:34:15;;;;;;;3.70;1.98;;;20.90;66.30;;;;;;5024373;28;97550;-52
2021/04/05 12:36:44;;;;;;;3.75;1.80;;;21.00;66.30;;;;;;5017925;28;96590;-53
2021/04/05 12:39:15;;;;;;;4.07;1.77;;;21.00;66.40;;;;;;5006992;28;95744;-52
2021/04/05 12:41:49;;;;;;;3.20;1.50;;;21.00;65.50;;;;;;5019431;28;96522;-50
2021/04/05 12:44:29;;;;;;;3.75;1.90;;;20.90;65.40;;;;;;5020224;28;96747;-50
2021/04/05 12:47:04;;;;;;;4.85;1.48;;;20.70;65.50;;;;;;5014034;28;95935;-52
2021/04/05 12:49:44;;;;;;;4.32;1.88;;;20.70;65.50;;;;;;5021276;28;96237;-50
2021/04/05 12:52:20;;;;;;;4.75;1.70;;;20.60;65.70;;;;;;5016844;28;95942;-51
2021/04/05 12:54:54;;;;;;;3.03;1.10;;;20.60;65.80;;;;;;5016343;28;95815;-51
2021/04/05 12:57:32;;;;;;;3.70;1.80;;;20.50;65.80;;;;;;5019068;28;96164;-53
2021/04/05 13:00:06;;;;;;;4.15;1.67;;;20.50;65.80;;;;;;5017453;28;95633;-55
2021/04/05 13:02:39;;;;;;;3.85;2.10;;;20.40;65.90;;;;;;5015843;27;95977;-52
2021/04/05 13:05:20;;;;;;;2.67;1.25;;;20.40;65.90;;;;;;5020470;28;96554;-53
2021/04/05 13:08:26;;;;;;;3.10;1.40;;;20.40;65.90;;;;;;5019219;28;95391;-50
2021/04/05 13:11:15;;;;;;;4.15;1.45;;;20.30;65.90;;;;;;4980910;28;97097;-50
2021/04/05 13:13:57;;;;;;;3.45;1.58;;;20.30;65.90;;;;;;5017976;28;96529;-53
2021/04/05 13:16:51;;;;;;;5.03;2.20;;;20.20;65.90;;;;;;5016100;28;95410;-50
2021/04/05 13:19:37;;;;;;;3.22;1.42;;;20.20;66.10;;;;;;5016783;28;95305;-50
2021/04/05 13:22:16;;;;;;;3.38;1.17;;;20.20;66.00;;;;;;4993448;28;96509;-50
2021/04/05 13:24:53;;;;;;;2.97;1.80;;;20.20;65.90;;;;;;5016267;28;96574;-54
2021/04/05 13:27:27;;;;;;;3.78;1.48;;;20.10;65.90;;;;;;5029659;27;98386;-51
2021/04/05 13:30:01;;;;;;;3.92;1.73;;;20.10;65.90;;;;;;5016787;28;95465;-52
2021/04/05 13:32:41;;;;;;;2.47;1.35;;;20.10;65.90;;;;;;5009480;27;96045;-52
2021/04/05 13:35:19;;;;;;;3.42;1.10;;;20.10;65.90;;;;;;5032167;27;96611;-50
2021/04/05 13:38:10;;;;;;;4.05;1.60;;;20.20;65.70;;;;;;5022377;28;95882;-51
2021/04/05 13:40:41;;;;;;;2.47;1.55;;;20.10;65.60;;;;;;5021796;28;96404;-51
2021/04/05 13:43:19;;;;;;;3.00;1.58;;;20.20;65.60;;;;;;5019045;28;95768;-52
2021/04/05 13:45:55;;;;;;;2.13;1.52;;;20.20;65.50;;;;;;5017950;28;96439;-51
2021/04/05 13:48:29;;;;;;;2.42;1.50;;;20.20;65.50;;;;;;5024085;28;96044;-47
2021/04/05 13:51:03;;;;;;;3.05;1.38;;;20.20;65.40;;;;;;5024410;28;96102;-52